createdAt,value
2018-05-06T00:00:09.636Z,2.17
2018-05-06T00:02:37.691Z,2.13
2018-05-06T00:05:05.249Z,1.83
2018-05-06T00:07:32.788Z,2.00
2018-05-06T00:10:00.367Z,1.70
2018-05-06T00:12:28.050Z,2.30
2018-05-06T00:14:55.971Z,2.20
2018-05-06T00:17:23.604Z,2.10
2018-05-06T00:19:51.188Z,2.60
2018-05-06T00:22:18.873Z,2.33
2018-05-06T00:24:46.418Z,2.37
2018-05-06T00:27:13.970Z,2.00
2018-05-06T00:29:41.611Z,1.90
2018-05-06T00:32:11.247Z,1.97
2018-05-06T00:34:39.262Z,2.53
2018-05-06T00:37:07.042Z,2.63
2018-05-06T00:39:34.663Z,2.10
2018-05-06T00:42:02.231Z,2.33
2018-05-06T00:44:29.857Z,2.33
2018-05-06T00:46:57.438Z,2.47
2018-05-06T00:49:24.987Z,1.90
2018-05-06T00:51:52.964Z,2.00
2018-05-06T00:54:32.319Z,3.13
2018-05-06T00:57:00.031Z,2.57
2018-05-06T00:59:27.570Z,2.57
2018-05-06T01:01:55.418Z,2.40
2018-05-06T01:04:23.135Z,2.80
2018-05-06T01:06:50.726Z,3.50
2018-05-06T01:09:18.342Z,3.20
2018-05-06T01:11:45.929Z,2.50
2018-05-06T01:14:13.617Z,2.27
2018-05-06T01:16:41.399Z,2.13
2018-05-06T01:19:08.973Z,1.60
2018-05-06T01:21:36.583Z,1.50
2018-05-06T01:24:04.196Z,2.47
2018-05-06T01:26:31.898Z,2.63
2018-05-06T01:28:59.466Z,2.13
2018-05-06T01:31:27.112Z,2.30
2018-05-06T01:33:55.095Z,2.00
2018-05-06T01:36:22.646Z,2.30
2018-05-06T01:38:50.570Z,2.37
2018-05-06T01:41:18.209Z,2.53
2018-05-06T01:43:46.275Z,2.40
2018-05-06T01:46:13.842Z,1.77
2018-05-06T01:48:41.392Z,2.30
2018-05-06T01:51:09.064Z,2.90
2018-05-06T01:53:36.797Z,2.20
2018-05-06T01:56:04.448Z,2.00
2018-05-06T01:58:32.020Z,2.80
2018-05-06T02:00:59.596Z,3.00
2018-05-06T02:03:27.446Z,2.23
2018-05-06T02:05:55.103Z,1.97
2018-05-06T02:08:22.902Z,2.00
2018-05-06T02:10:51.017Z,2.47
2018-05-06T02:13:18.743Z,2.17
2018-05-06T02:15:46.294Z,2.00
2018-05-06T02:18:14.260Z,2.70
2018-05-06T02:20:41.810Z,2.30
2018-05-06T02:23:09.399Z,2.40
2018-05-06T02:25:37.222Z,1.97
2018-05-06T02:28:04.794Z,1.70
2018-05-06T02:30:32.475Z,2.00
2018-05-06T02:33:00.047Z,2.73
2018-05-06T02:35:27.622Z,1.60
2018-05-06T02:37:55.263Z,1.80
2018-05-06T02:40:23.125Z,1.70
2018-05-06T02:42:50.771Z,2.30
2018-05-06T02:45:18.323Z,2.47
2018-05-06T02:47:45.906Z,2.40
2018-05-06T02:50:13.480Z,2.10
2018-05-06T02:52:41.184Z,2.07
2018-05-06T02:55:08.780Z,2.13
2018-05-06T02:57:36.341Z,2.03
2018-05-06T03:00:03.927Z,2.20
2018-05-06T03:02:31.567Z,2.93
2018-05-06T03:04:59.620Z,2.20
2018-05-06T03:07:27.242Z,2.80
2018-05-06T03:09:54.798Z,2.70
2018-05-06T03:12:22.377Z,2.50
2018-05-06T03:14:50.178Z,2.60
2018-05-06T03:17:17.756Z,2.50
2018-05-06T03:19:45.331Z,2.47
2018-05-06T03:22:13.316Z,2.20
2018-05-06T03:24:40.879Z,2.70
2018-05-06T03:27:08.447Z,3.57
2018-05-06T03:29:36.384Z,4.87
2018-05-06T03:32:04.869Z,5.50
2018-05-06T03:34:32.411Z,4.77
2018-05-06T03:37:00.047Z,4.00
2018-05-06T03:39:27.626Z,2.67
2018-05-06T03:41:55.180Z,3.17
2018-05-06T03:44:22.999Z,2.47
2018-05-06T03:46:50.556Z,3.00
2018-05-06T03:49:18.195Z,2.40
2018-05-06T03:51:45.742Z,2.70
2018-05-06T03:54:13.308Z,2.57
2018-05-06T03:57:01.347Z,2.97
2018-05-06T03:59:40.673Z,2.40
2018-05-06T04:05:19.288Z,2.50
2018-05-06T04:07:47.131Z,2.63
2018-05-06T04:10:14.741Z,2.40
2018-05-06T04:12:42.307Z,2.90
2018-05-06T04:15:09.851Z,4.20
2018-05-06T04:17:37.474Z,7.07
2018-05-06T04:20:05.158Z,6.60
2018-05-06T04:22:32.784Z,7.07
2018-05-06T04:25:00.344Z,6.17
2018-05-06T04:27:28.213Z,5.30
2018-05-06T04:29:55.808Z,5.00
2018-05-06T04:32:23.452Z,4.37
2018-05-06T04:34:51.030Z,4.53
2018-05-06T04:37:18.606Z,3.23
2018-05-06T04:39:46.561Z,3.00
2018-05-06T04:42:14.183Z,2.67
2018-05-06T04:44:41.756Z,3.43
2018-05-06T04:47:09.296Z,3.00
2018-05-06T04:49:37.260Z,2.97
2018-05-06T04:52:04.846Z,2.53
2018-05-06T04:54:32.569Z,2.17
2018-05-06T04:57:00.195Z,2.60
2018-05-06T04:59:27.873Z,2.70
2018-05-06T05:01:56.043Z,2.77
2018-05-06T05:04:23.690Z,2.87
2018-05-06T05:06:51.310Z,2.63
2018-05-06T05:09:18.977Z,3.80
2018-05-06T05:11:46.527Z,2.50
2018-05-06T05:14:14.227Z,3.10
2018-05-06T05:16:41.995Z,3.47
2018-05-06T05:19:09.785Z,3.73
2018-05-06T05:21:37.449Z,3.53
2018-05-06T05:24:05.116Z,3.00
2018-05-06T05:26:32.703Z,3.27
2018-05-06T05:29:00.271Z,2.70
2018-05-06T05:31:27.875Z,2.67
2018-05-06T05:33:55.491Z,3.20
2018-05-06T05:36:23.471Z,2.40
2018-05-06T05:38:51.036Z,4.53
2018-05-06T05:41:18.683Z,3.10
2018-05-06T05:43:46.487Z,2.70
2018-05-06T05:46:14.119Z,2.83
2018-05-06T05:48:42.708Z,2.60
2018-05-06T05:51:10.474Z,2.47
2018-05-06T05:53:38.086Z,2.90
2018-05-06T05:56:05.731Z,3.23
2018-05-06T05:58:33.594Z,3.23
2018-05-06T06:01:01.515Z,3.00
2018-05-06T06:03:29.374Z,3.70
2018-05-06T06:05:57.106Z,3.00
2018-05-06T06:08:24.717Z,2.90
2018-05-06T06:10:52.301Z,3.30
2018-05-06T06:13:19.955Z,3.23
2018-05-06T06:15:47.743Z,3.33
2018-05-06T06:18:15.402Z,3.30
2018-05-06T06:20:43.538Z,3.40
2018-05-06T06:23:11.253Z,2.90
2018-05-06T06:25:38.822Z,3.30
2018-05-06T06:28:06.491Z,3.70
2018-05-06T06:30:34.041Z,4.37
2018-05-06T06:33:01.655Z,2.50
2018-05-06T06:35:29.179Z,3.43
2018-05-06T06:37:56.860Z,2.70
2018-05-06T06:40:24.401Z,2.67
2018-05-06T06:42:51.943Z,2.80
2018-05-06T06:45:19.523Z,2.90
2018-05-06T06:47:47.317Z,3.30
2018-05-06T06:50:15.135Z,2.90
2018-05-06T06:52:42.934Z,2.90
2018-05-06T06:55:10.542Z,3.17
2018-05-06T06:57:38.235Z,2.80
2018-05-06T07:00:05.791Z,3.03
2018-05-06T07:02:33.368Z,3.47
2018-05-06T07:05:01.422Z,2.97
2018-05-06T07:07:28.977Z,2.63
2018-05-06T07:09:56.535Z,3.50
2018-05-06T07:12:24.344Z,2.77
2018-05-06T07:14:52.027Z,4.40
2018-05-06T07:17:19.569Z,3.17
2018-05-06T07:19:47.114Z,2.70
2018-05-06T07:22:14.714Z,3.43
2018-05-06T07:24:42.264Z,3.43
2018-05-06T07:27:09.806Z,2.10
2018-05-06T07:29:37.403Z,2.17
2018-05-06T07:32:05.020Z,2.80
2018-05-06T07:34:32.632Z,2.70
2018-05-06T07:37:00.187Z,2.37
2018-05-06T07:39:27.876Z,2.40
2018-05-06T07:41:55.509Z,2.57
2018-05-06T07:44:23.081Z,2.83
2018-05-06T07:46:50.710Z,2.23
2018-05-06T07:49:18.354Z,2.80
2018-05-06T07:51:45.996Z,1.70
2018-05-06T07:54:13.542Z,2.10
2018-05-06T07:56:41.364Z,2.40
2018-05-06T07:59:09.027Z,2.30
2018-05-06T08:01:36.647Z,2.47
2018-05-06T08:04:04.345Z,2.33
2018-05-06T08:06:31.953Z,2.20
2018-05-06T08:08:59.590Z,2.10
2018-05-06T08:11:27.136Z,1.73
2018-05-06T08:13:54.702Z,2.20
2018-05-06T08:16:22.394Z,2.33
2018-05-06T08:18:49.896Z,1.87
2018-05-06T08:21:17.458Z,2.10
2018-05-06T08:23:45.155Z,1.93
2018-05-06T08:26:12.699Z,1.90
2018-05-06T08:28:40.336Z,1.93
2018-05-06T08:31:08.038Z,2.70
2018-05-06T08:33:35.552Z,1.70
2018-05-06T08:36:03.511Z,2.37
2018-05-06T08:38:31.653Z,1.80
2018-05-06T08:40:59.298Z,2.20
2018-05-06T08:43:26.957Z,2.00
2018-05-06T08:45:54.613Z,1.60
2018-05-06T08:48:22.412Z,2.43
2018-05-06T08:50:50.112Z,1.50
2018-05-06T08:53:17.681Z,2.40
2018-05-06T08:55:45.299Z,1.83
2018-05-06T08:58:12.940Z,1.97
2018-05-06T09:00:40.529Z,1.80
2018-05-06T09:03:08.325Z,1.90
2018-05-06T09:05:35.914Z,1.90
2018-05-06T09:08:03.523Z,1.80
2018-05-06T09:10:31.119Z,1.83
2018-05-06T09:12:58.757Z,1.87
2018-05-06T09:15:26.317Z,1.50
2018-05-06T09:17:53.932Z,1.83
2018-05-06T09:20:21.549Z,1.77
2018-05-06T09:22:49.160Z,1.80
2018-05-06T09:25:16.807Z,1.80
2018-05-06T09:27:44.348Z,1.60
2018-05-06T09:30:12.234Z,1.80
2018-05-06T09:32:39.824Z,1.80
2018-05-06T09:35:07.610Z,1.90
2018-05-06T09:37:35.257Z,2.70
2018-05-06T09:40:02.795Z,1.17
2018-05-06T09:42:30.457Z,1.50
2018-05-06T09:44:58.010Z,1.40
2018-05-06T09:47:25.620Z,2.00
2018-05-06T09:49:53.495Z,1.80
2018-05-06T09:52:21.129Z,1.70
2018-05-06T09:54:48.815Z,1.87
2018-05-06T09:57:16.650Z,1.70
2018-05-06T09:59:44.220Z,1.73
2018-05-06T10:02:11.837Z,2.33
2018-05-06T10:04:39.443Z,2.00
2018-05-06T10:07:06.985Z,2.30
2018-05-06T10:09:34.585Z,2.10
2018-05-06T10:12:02.135Z,2.30
2018-05-06T10:14:29.694Z,1.67
2018-05-06T10:16:57.278Z,2.20
2018-05-06T10:19:24.825Z,1.90
2018-05-06T10:21:52.827Z,2.00
2018-05-06T10:24:20.377Z,1.63
2018-05-06T10:26:48.244Z,2.10
2018-05-06T10:29:16.244Z,1.90
2018-05-06T10:31:43.785Z,1.90
2018-05-06T10:34:11.348Z,1.97
2018-05-06T10:36:38.970Z,2.53
2018-05-06T10:39:06.833Z,1.70
2018-05-06T10:41:34.417Z,2.27
2018-05-06T10:44:02.102Z,2.20
2018-05-06T10:46:29.683Z,1.20
2018-05-06T10:48:57.308Z,1.10
2018-05-06T10:51:24.949Z,1.50
2018-05-06T10:53:52.497Z,1.47
2018-05-06T10:56:20.052Z,1.43
2018-05-06T10:58:47.703Z,1.27
2018-05-06T11:01:15.625Z,1.73
2018-05-06T11:03:43.192Z,1.50
2018-05-06T11:06:10.757Z,1.80
2018-05-06T11:08:38.499Z,1.70
2018-05-06T11:11:06.060Z,1.70
2018-05-06T11:13:34.004Z,1.20
2018-05-06T11:16:01.701Z,1.70
2018-05-06T11:18:29.400Z,1.00
2018-05-06T11:20:57.054Z,1.20
2018-05-06T11:23:24.630Z,1.30
2018-05-06T11:25:52.517Z,1.30
2018-05-06T11:28:20.189Z,1.33
2018-05-06T11:30:47.738Z,1.10
2018-05-06T11:33:15.415Z,1.30
2018-05-06T11:35:43.235Z,1.33
2018-05-06T11:38:10.778Z,1.37
2018-05-06T11:40:38.328Z,1.00
2018-05-06T11:43:05.934Z,1.20
2018-05-06T11:45:33.479Z,1.23
2018-05-06T11:48:01.066Z,1.27
2018-05-06T11:50:28.646Z,1.10
2018-05-06T11:52:56.217Z,1.50
2018-05-06T11:55:23.783Z,1.30
2018-05-06T11:57:51.536Z,1.37
2018-05-06T12:00:19.098Z,1.60
2018-05-06T12:02:46.703Z,2.00
2018-05-06T12:05:14.343Z,1.47
2018-05-06T12:07:41.931Z,1.90
2018-05-06T12:10:09.552Z,1.40
2018-05-06T12:12:37.115Z,1.10
2018-05-06T12:15:04.768Z,1.10
2018-05-06T12:17:32.324Z,1.30
2018-05-06T12:19:59.922Z,1.23
2018-05-06T12:22:27.530Z,1.90
2018-05-06T12:24:55.087Z,1.47
2018-05-06T12:27:23.025Z,1.43
2018-05-06T12:29:50.586Z,1.40
2018-05-06T12:32:18.157Z,1.00
2018-05-06T12:34:45.768Z,0.80
2018-05-06T12:37:13.323Z,1.20
2018-05-06T12:39:40.909Z,1.13
2018-05-06T12:42:08.960Z,0.83
2018-05-06T12:44:36.510Z,1.30
2018-05-06T12:47:04.119Z,1.30
2018-05-06T12:49:31.734Z,1.30
2018-05-06T12:51:59.323Z,1.23
2018-05-06T12:54:26.939Z,1.23
2018-05-06T12:56:54.672Z,1.17
2018-05-06T12:59:22.287Z,1.30
2018-05-06T13:01:49.834Z,1.40
2018-05-06T13:04:17.582Z,1.43
2018-05-06T13:06:45.270Z,1.40
2018-05-06T13:09:12.845Z,1.23
2018-05-06T13:11:40.467Z,1.47
2018-05-06T13:14:08.074Z,1.47
2018-05-06T13:16:35.638Z,1.30
2018-05-06T13:19:03.187Z,1.13
2018-05-06T13:21:30.886Z,1.33
2018-05-06T13:23:58.432Z,1.20
2018-05-06T13:26:25.999Z,1.10
2018-05-06T13:28:53.773Z,1.00
2018-05-06T13:31:21.415Z,1.20
2018-05-06T13:33:48.977Z,1.43
2018-05-06T13:36:17.034Z,1.47
2018-05-06T13:38:44.606Z,1.87
2018-05-06T13:41:12.416Z,1.57
2018-05-06T13:43:40.443Z,1.10
2018-05-06T13:46:08.023Z,1.60
2018-05-06T13:48:35.586Z,1.60
2018-05-06T13:51:03.179Z,1.30
2018-05-06T13:53:30.800Z,1.20
2018-05-06T13:55:58.357Z,1.27
2018-05-06T13:58:26.949Z,1.47
2018-05-06T14:00:55.052Z,1.50
2018-05-06T14:03:22.660Z,1.53
2018-05-06T14:05:50.534Z,1.40
2018-05-06T14:08:18.085Z,1.20
2018-05-06T14:10:45.715Z,1.40
2018-05-06T14:13:13.500Z,1.40
2018-05-06T14:15:41.286Z,1.30
2018-05-06T14:18:08.920Z,1.60
2018-05-06T14:20:36.544Z,1.23
2018-05-06T14:23:04.433Z,1.30
2018-05-06T14:25:32.528Z,1.23
2018-05-06T14:28:00.156Z,1.17
2018-05-06T14:30:27.741Z,1.17
2018-05-06T14:32:55.554Z,1.50
2018-05-06T14:35:23.140Z,1.77
2018-05-06T14:37:50.755Z,1.23
2018-05-06T14:40:18.438Z,1.10
2018-05-06T14:42:46.043Z,1.30
2018-05-06T14:45:13.601Z,0.97
2018-05-06T14:47:53.106Z,1.30
2018-05-06T14:50:20.681Z,1.17
2018-05-06T14:52:48.365Z,1.10
2018-05-06T14:55:16.073Z,1.37
2018-05-06T14:57:43.639Z,1.13
2018-05-06T15:00:11.534Z,1.30
2018-05-06T15:02:39.073Z,1.30
2018-05-06T15:05:06.639Z,1.80
2018-05-06T15:07:34.234Z,1.77
2018-05-06T15:10:01.787Z,1.53
2018-05-06T15:12:29.400Z,0.97
2018-05-06T15:14:57.412Z,1.10
2018-05-06T15:17:24.974Z,1.30
2018-05-06T15:19:53.074Z,1.43
2018-05-06T15:22:20.631Z,1.23
2018-05-06T15:24:48.194Z,1.67
2018-05-06T15:27:16.006Z,1.70
2018-05-06T15:29:43.813Z,1.17
2018-05-06T15:32:11.392Z,1.03
2018-05-06T15:34:39.173Z,1.03
2018-05-06T15:37:07.204Z,1.20
2018-05-06T15:39:34.837Z,1.20
2018-05-06T15:42:02.621Z,1.10
2018-05-06T15:44:30.770Z,1.13
2018-05-06T15:46:58.407Z,1.00
2018-05-06T15:49:26.039Z,1.20
2018-05-06T15:51:53.785Z,1.10
2018-05-06T15:54:21.331Z,1.10
2018-05-06T15:56:48.946Z,1.20
2018-05-06T15:59:17.017Z,1.10
2018-05-06T16:01:44.647Z,1.43
2018-05-06T16:04:15.337Z,1.20
2018-05-06T16:06:42.908Z,1.67
2018-05-06T16:09:10.694Z,1.23
2018-05-06T16:11:39.199Z,1.20
2018-05-06T16:14:06.812Z,1.50
2018-05-06T16:16:34.451Z,1.13
2018-05-06T16:19:02.033Z,1.23
2018-05-06T16:21:29.609Z,1.10
2018-05-06T16:23:57.325Z,0.90
2018-05-06T16:26:24.890Z,1.30
2018-05-06T16:28:52.519Z,1.23
2018-05-06T16:31:20.074Z,1.00
2018-05-06T16:33:47.621Z,1.57
2018-05-06T16:36:15.653Z,1.13
2018-05-06T16:38:43.458Z,1.27
2018-05-06T16:41:11.018Z,1.37
2018-05-06T16:43:38.853Z,1.03
2018-05-06T16:46:06.440Z,0.90
2018-05-06T16:48:34.645Z,0.83
2018-05-06T16:51:02.497Z,1.53
2018-05-06T16:53:30.175Z,0.90
2018-05-06T16:55:58.042Z,1.00
2018-05-06T16:58:25.610Z,1.20
2018-05-06T17:00:53.426Z,1.30
2018-05-06T17:03:20.981Z,0.90
2018-05-06T17:05:48.933Z,1.20
2018-05-06T17:08:16.578Z,0.70
2018-05-06T17:10:44.386Z,1.13
2018-05-06T17:13:12.234Z,1.10
2018-05-06T17:15:40.095Z,0.90
2018-05-06T17:18:07.671Z,1.10
2018-05-06T17:20:35.679Z,0.77
2018-05-06T17:23:03.274Z,1.33
2018-05-06T17:25:30.846Z,1.60
2018-05-06T17:27:58.692Z,1.17
2018-05-06T17:30:26.263Z,1.33
2018-05-06T17:32:54.610Z,0.70
2018-05-06T17:35:22.328Z,1.20
2018-05-06T17:37:49.967Z,0.80
2018-05-06T17:40:17.892Z,1.20
2018-05-06T17:42:45.545Z,0.90
2018-05-06T17:45:13.882Z,1.20
2018-05-06T17:47:41.590Z,1.00
2018-05-06T17:50:09.491Z,1.10
2018-05-06T17:52:37.111Z,1.00
2018-05-06T17:55:04.754Z,1.37
2018-05-06T17:57:32.751Z,0.90
2018-05-06T18:00:00.432Z,1.20
2018-05-06T18:02:28.048Z,1.10
2018-05-06T18:04:55.611Z,1.10
2018-05-06T18:07:23.457Z,1.10
2018-05-06T18:09:51.422Z,1.00
2018-05-06T18:12:19.000Z,1.00
2018-05-06T18:14:46.600Z,0.93
2018-05-06T18:17:14.293Z,1.40
2018-05-06T18:19:42.221Z,0.87
2018-05-06T18:22:09.810Z,1.00
2018-05-06T18:24:37.443Z,1.13
2018-05-06T18:27:05.290Z,1.33
2018-05-06T18:29:33.166Z,0.97
2018-05-06T18:32:01.085Z,1.07
2018-05-06T18:34:28.657Z,1.10
2018-05-06T18:36:56.207Z,1.00
2018-05-06T18:39:24.703Z,1.10
2018-05-06T18:41:53.034Z,1.10
2018-05-06T18:44:20.639Z,1.80
2018-05-06T18:46:48.234Z,1.10
2018-05-06T18:49:15.868Z,1.10
2018-05-06T18:51:43.541Z,0.90
2018-05-06T18:54:11.240Z,0.73
2018-05-06T18:56:38.820Z,1.40
2018-05-06T18:59:06.495Z,1.37
2018-05-06T19:01:34.343Z,1.33
2018-05-06T19:04:01.926Z,1.37
2018-05-06T19:06:29.761Z,0.90
2018-05-06T19:08:57.330Z,0.90
2018-05-06T19:11:25.033Z,1.10
2018-05-06T19:13:52.707Z,1.40
2018-05-06T19:16:20.350Z,1.07
2018-05-06T19:18:47.946Z,1.00
2018-05-06T19:21:15.577Z,1.20
2018-05-06T19:23:43.176Z,1.17
2018-05-06T19:26:11.179Z,1.20
2018-05-06T19:28:38.792Z,1.00
2018-05-06T19:31:06.363Z,0.90
2018-05-06T19:33:33.978Z,1.63
2018-05-06T19:36:01.556Z,1.10
2018-05-06T19:38:29.441Z,1.30
2018-05-06T19:40:57.012Z,1.40
2018-05-06T19:43:24.582Z,1.83
2018-05-06T19:45:52.197Z,1.13
2018-05-06T19:48:19.789Z,1.50
2018-05-06T19:50:47.393Z,1.00
2018-05-06T19:53:15.772Z,1.43
2018-05-06T19:55:43.350Z,1.00
2018-05-06T19:58:10.927Z,1.07
2018-05-06T20:00:38.523Z,1.70
2018-05-06T20:03:06.117Z,1.00
2018-05-06T20:05:33.748Z,1.30
2018-05-06T20:08:01.393Z,1.03
2018-05-06T20:10:29.294Z,1.30
2018-05-06T20:12:57.032Z,1.20
2018-05-06T20:15:24.582Z,1.30
2018-05-06T20:17:52.554Z,1.57
2018-05-06T20:20:20.125Z,1.23
2018-05-06T20:22:47.819Z,2.03
2018-05-06T20:25:15.535Z,1.60
2018-05-06T20:27:43.125Z,1.00
2018-05-06T20:30:12.713Z,1.37
2018-05-06T20:32:40.361Z,1.60
2018-05-06T20:35:07.934Z,1.13
2018-05-06T20:37:35.900Z,1.47
2018-05-06T20:40:03.802Z,1.20
2018-05-06T20:42:31.481Z,1.60
2018-05-06T20:44:59.527Z,2.00
2018-05-06T20:47:27.457Z,1.90
2018-05-06T20:49:55.527Z,1.80
2018-05-06T20:52:23.397Z,1.77
2018-05-06T20:54:51.005Z,1.67
2018-05-06T20:57:18.691Z,1.23
2018-05-06T20:59:46.258Z,1.50
2018-05-06T21:02:13.859Z,1.37
2018-05-06T21:04:41.439Z,1.53
2018-05-06T21:07:09.063Z,1.63
2018-05-06T21:09:36.615Z,1.50
2018-05-06T21:12:04.236Z,1.60
2018-05-06T21:14:31.896Z,1.53
2018-05-06T21:16:59.623Z,1.67
2018-05-06T21:19:27.298Z,1.43
2018-05-06T21:21:54.985Z,2.23
2018-05-06T21:24:22.836Z,1.73
2018-05-06T21:26:50.416Z,2.50
2018-05-06T21:29:17.974Z,1.93
2018-05-06T21:31:45.871Z,1.73
2018-05-06T21:34:13.680Z,1.80
2018-05-06T21:36:41.367Z,1.80
2018-05-06T21:39:09.024Z,1.37
2018-05-06T21:41:36.488Z,1.90
2018-05-06T21:44:04.501Z,1.70
2018-05-06T21:46:32.246Z,1.93
2018-05-06T21:49:00.040Z,1.60
2018-05-06T21:51:27.644Z,3.93
2018-05-06T21:53:55.951Z,2.20
2018-05-06T21:56:23.762Z,2.03
2018-05-06T21:58:51.558Z,1.83
2018-05-06T22:01:21.127Z,1.70
2018-05-06T22:03:48.675Z,1.90
2018-05-06T22:06:16.282Z,1.90
2018-05-06T22:08:43.928Z,1.87
2018-05-06T22:11:11.798Z,1.97
2018-05-06T22:13:39.377Z,2.13
2018-05-06T22:16:06.926Z,1.70
2018-05-06T22:18:34.624Z,2.80
2018-05-06T22:21:02.271Z,2.23
2018-05-06T22:23:29.822Z,1.90
2018-05-06T22:25:57.393Z,2.13
2018-05-06T22:28:24.980Z,1.80
2018-05-06T22:30:52.805Z,1.83
2018-05-06T22:33:20.675Z,2.10
2018-05-06T22:35:48.671Z,3.00
2018-05-06T22:38:16.218Z,1.87
2018-05-06T22:40:44.077Z,2.03
2018-05-06T22:43:11.695Z,2.10
2018-05-06T22:45:39.329Z,2.33
2018-05-06T22:48:07.032Z,2.93
2018-05-06T22:50:34.601Z,2.87
2018-05-06T22:53:02.250Z,2.37
2018-05-06T22:55:29.957Z,2.57
2018-05-06T22:57:57.508Z,3.20
2018-05-06T23:00:25.091Z,2.00
2018-05-06T23:02:52.738Z,2.70
2018-05-06T23:05:20.393Z,2.13
2018-05-06T23:07:48.043Z,2.47
2018-05-06T23:10:15.847Z,2.00
2018-05-06T23:12:43.400Z,2.30
2018-05-06T23:15:11.223Z,2.10
2018-05-06T23:17:38.867Z,2.17
2018-05-06T23:20:06.467Z,2.60
2018-05-06T23:22:34.078Z,2.50
2018-05-06T23:25:01.670Z,2.20
2018-05-06T23:27:29.692Z,1.93
2018-05-06T23:29:57.637Z,2.00
2018-05-06T23:32:25.083Z,2.23
2018-05-06T23:34:52.669Z,2.40
2018-05-06T23:37:20.290Z,2.90
2018-05-06T23:39:47.910Z,2.60
2018-05-06T23:42:15.561Z,2.50
2018-05-06T23:44:43.115Z,2.40
2018-05-06T23:47:10.825Z,3.30
2018-05-06T23:49:38.369Z,2.07
2018-05-06T23:52:05.947Z,2.93
2018-05-06T23:54:33.548Z,2.47
2018-05-06T23:57:01.096Z,2.90
2018-05-06T23:59:28.745Z,2.20
